Terminal Aerodrome Forecast
Issued by NWS

Home | Current Version | Previous Version | Text Only | Print | Product List | Glossary On
Versions: 1 2 3 4 5 6 7 8 9 10 11 12 13 14 15 16
889
FTUS43 KDLH 202340
TAFHIB
TAF
KHIB 202340Z 2100/2124 28010G16KT P6SM SCT110
     FM210200 28008KT P6SM BKN100
     FM210500 31014G21KT P6SM BKN020 BKN050
     FM210700 32015G25KT P6SM SCT050
     FM211400 33014G21KT P6SM SCT060=

USA.gov is the U.S. government's official web portal to all federal, state and local government web resources and services.